Time;durP1;ratioP1;P1;durP2;ratioP2;P2;SDS_P1;SDS_P2;PMS_P1;PMS_P2;Temp;Humidity;BMP_temperature;BMP_pressure;BME280_temperature;BME280_humidity;BME280_pressure;Samples;Min_cycle;Max_cycle;Signal;HPM_P1;HPM_P2
2021/01/21 00:02:10;;;;;;;2.92;0.68;;;10.80;78.20;;;;;;5013933;28;20093;-74
2021/01/21 00:04:35;;;;;;;2.25;0.65;;;10.70;78.20;;;;;;5014643;28;20038;-71
2021/01/21 00:07:01;;;;;;;1.58;0.82;;;10.70;78.30;;;;;;5014384;28;20057;-71
2021/01/21 00:09:27;;;;;;;0.68;0.68;;;10.70;78.30;;;;;;5013847;28;20230;-71
2021/01/21 00:11:52;;;;;;;1.40;0.80;;;10.70;78.10;;;;;;5014599;28;20033;-72
2021/01/21 00:14:18;;;;;;;1.30;0.70;;;10.80;78.10;;;;;;5013696;28;20030;-72
2021/01/21 00:16:44;;;;;;;2.47;1.00;;;10.80;78.10;;;;;;5014279;28;20104;-72
2021/01/21 00:19:09;;;;;;;2.55;0.70;;;10.80;78.00;;;;;;5029113;28;20080;-73
2021/01/21 00:21:35;;;;;;;2.13;0.80;;;10.80;78.00;;;;;;5034411;28;20025;-72
2021/01/21 00:24:01;;;;;;;1.30;0.70;;;10.80;78.00;;;;;;5032805;28;20099;-72
2021/01/21 00:26:27;;;;;;;1.23;0.70;;;10.80;78.00;;;;;;5033087;28;20113;-72
2021/01/21 00:28:53;;;;;;;0.88;0.70;;;10.80;78.00;;;;;;5032518;28;20045;-72
2021/01/21 00:31:18;;;;;;;1.00;0.63;;;10.80;78.00;;;;;;5033378;28;20106;-72
2021/01/21 00:33:44;;;;;;;0.85;0.80;;;10.70;78.00;;;;;;5032774;28;20052;-72
2021/01/21 00:36:10;;;;;;;1.10;0.73;;;10.70;78.00;;;;;;5033586;28;20114;-74
2021/01/21 00:38:36;;;;;;;0.65;0.43;;;10.70;78.10;;;;;;5033323;28;20044;-72
2021/01/21 00:41:01;;;;;;;2.65;0.80;;;10.70;78.00;;;;;;5032532;28;20017;-71
2021/01/21 00:43:27;;;;;;;1.40;0.80;;;10.70;78.10;;;;;;5031515;28;20462;-72
2021/01/21 00:45:52;;;;;;;0.55;0.55;;;10.70;78.20;;;;;;5033896;28;20576;-73
2021/01/21 00:48:19;;;;;;;2.65;0.90;;;10.60;78.10;;;;;;5031628;28;20112;-72
2021/01/21 00:50:45;;;;;;;0.70;0.60;;;10.70;78.20;;;;;;5033975;28;20029;-72
2021/01/21 00:53:10;;;;;;;1.23;0.60;;;10.60;78.10;;;;;;5033914;28;20029;-75
2021/01/21 00:55:36;;;;;;;0.80;0.63;;;10.60;78.20;;;;;;5031866;28;20030;-72
2021/01/21 00:58:02;;;;;;;1.00;0.50;;;10.60;78.20;;;;;;5032506;28;20109;-72
2021/01/21 01:00:28;;;;;;;2.00;0.70;;;10.60;78.30;;;;;;5032725;28;20029;-74
2021/01/21 01:02:53;;;;;;;0.82;0.60;;;10.60;78.30;;;;;;5032332;28;20018;-72
2021/01/21 01:05:19;;;;;;;1.63;0.52;;;10.70;78.20;;;;;;5032575;28;20068;-72
2021/01/21 01:07:44;;;;;;;0.80;0.80;;;10.70;78.00;;;;;;5033052;28;20516;-72
2021/01/21 01:10:11;;;;;;;0.50;0.50;;;10.80;77.90;;;;;;5031978;28;20033;-73
2021/01/21 01:12:36;;;;;;;0.70;0.55;;;10.80;77.80;;;;;;5032590;28;20021;-72
2021/01/21 01:15:07;;;;;;;1.00;0.65;;;10.80;77.70;;;;;;5031944;28;20032;-72
2021/01/21 01:17:34;;;;;;;2.08;0.63;;;10.80;77.70;;;;;;5032464;28;20029;-72
2021/01/21 01:19:59;;;;;;;0.95;0.63;;;10.80;77.70;;;;;;5033174;28;20029;-73
2021/01/21 01:22:25;;;;;;;0.85;0.60;;;10.70;77.60;;;;;;5032308;28;20320;-72
2021/01/21 01:24:50;;;;;;;0.57;0.50;;;10.80;77.70;;;;;;5031535;28;20029;-71
2021/01/21 01:27:16;;;;;;;1.20;0.75;;;10.80;77.70;;;;;;5032125;28;20029;-75
2021/01/21 01:29:46;;;;;;;0.60;0.60;;;10.80;77.60;;;;;;5032859;28;20099;-73
2021/01/21 01:32:12;;;;;;;0.70;0.70;;;10.80;77.60;;;;;;5032944;28;20102;-72
2021/01/21 01:34:38;;;;;;;0.60;0.60;;;10.80;77.60;;;;;;5031976;28;20104;-72
2021/01/21 01:37:04;;;;;;;0.70;0.70;;;10.80;77.50;;;;;;5031618;28;20109;-73
2021/01/21 01:39:31;;;;;;;1.38;0.77;;;10.80;77.40;;;;;;5031837;28;20112;-72
2021/01/21 01:41:57;;;;;;;2.33;0.70;;;10.80;77.30;;;;;;5032799;28;20096;-73
2021/01/21 01:44:22;;;;;;;0.55;0.50;;;10.90;77.30;;;;;;5030514;28;20060;-73
2021/01/21 01:46:48;;;;;;;1.10;0.82;;;10.90;77.10;;;;;;5032307;28;20049;-72
2021/01/21 01:49:14;;;;;;;1.52;1.05;;;10.90;77.10;;;;;;5032000;28;20026;-73
2021/01/21 01:51:43;;;;;;;0.47;0.47;;;10.90;76.80;;;;;;5032051;28;20029;-73
2021/01/21 01:54:10;;;;;;;1.67;0.70;;;10.90;76.70;;;;;;5032737;28;20018;-72
2021/01/21 01:56:36;;;;;;;0.98;0.80;;;11.00;76.70;;;;;;5030101;28;20175;-73
2021/01/21 01:59:02;;;;;;;1.05;0.60;;;11.00;76.30;;;;;;5032317;28;20021;-72
2021/01/21 02:01:29;;;;;;;0.65;0.57;;;11.00;76.10;;;;;;5031254;28;20022;-72
2021/01/21 02:03:55;;;;;;;1.73;0.70;;;11.00;76.00;;;;;;5031831;28;20414;-73
2021/01/21 02:06:21;;;;;;;0.77;0.60;;;11.10;75.90;;;;;;5030080;28;20039;-74
2021/01/21 02:08:47;;;;;;;1.98;0.50;;;11.10;75.80;;;;;;5030806;28;20319;-72
2021/01/21 02:11:37;;;;;;;0.68;0.68;;;11.10;75.60;;;;;;5032363;28;20035;-72
2021/01/21 02:14:10;;;;;;;0.60;0.60;;;11.20;75.50;;;;;;5032124;28;20052;-73
2021/01/21 02:16:55;;;;;;;1.15;0.70;;;11.20;75.20;;;;;;5031201;28;20372;-71
2021/01/21 02:19:45;;;;;;;0.43;0.43;;;11.30;75.10;;;;;;5028418;28;20064;-74
2021/01/21 02:22:48;;;;;;;1.33;0.70;;;11.20;75.10;;;;;;5030759;28;20072;-71
2021/01/21 02:25:17;;;;;;;0.98;0.68;;;11.30;75.00;;;;;;5032169;28;20112;-72
2021/01/21 02:27:46;;;;;;;2.85;0.55;;;11.20;75.50;;;;;;5030047;28;20030;-72
2021/01/21 02:30:35;;;;;;;1.55;0.80;;;11.10;76.00;;;;;;5030313;28;20073;-72
2021/01/21 02:33:29;;;;;;;0.82;0.70;;;11.10;76.50;;;;;;5030580;28;20021;-72
2021/01/21 02:36:00;;;;;;;0.77;0.50;;;11.00;76.80;;;;;;5031801;28;20037;-72
2021/01/21 02:38:28;;;;;;;1.00;0.73;;;11.00;77.10;;;;;;5029446;28;20021;-72
2021/01/21 02:40:54;;;;;;;0.82;0.60;;;10.90;77.10;;;;;;5031666;28;20052;-72
2021/01/21 02:43:19;;;;;;;1.52;0.85;;;11.00;77.20;;;;;;5031499;28;20053;-74
2021/01/21 02:45:45;;;;;;;1.02;0.70;;;11.00;77.00;;;;;;5029737;28;20033;-72
2021/01/21 02:48:11;;;;;;;0.50;0.50;;;11.00;77.10;;;;;;5030287;28;20028;-72
2021/01/21 02:50:39;;;;;;;2.30;0.52;;;11.00;77.30;;;;;;5030562;28;20025;-73
2021/01/21 02:53:05;;;;;;;1.98;0.93;;;11.00;77.20;;;;;;5031441;28;20079;-73
2021/01/21 02:55:44;;;;;;;0.70;0.60;;;11.00;77.40;;;;;;5031023;28;20486;-73
2021/01/21 02:58:15;;;;;;;0.50;0.47;;;11.10;77.70;;;;;;5031702;28;20052;-72
2021/01/21 03:00:43;;;;;;;1.37;0.90;;;11.00;77.80;;;;;;5030347;28;20177;-72
2021/01/21 03:03:16;;;;;;;0.73;0.50;;;11.00;78.10;;;;;;5030161;28;20257;-72
2021/01/21 03:05:43;;;;;;;0.70;0.70;;;11.00;78.20;;;;;;5029012;28;20099;-72
2021/01/21 03:08:10;;;;;;;1.23;0.63;;;11.00;78.20;;;;;;5030045;28;20030;-72
2021/01/21 03:10:35;;;;;;;1.35;0.73;;;11.10;77.90;;;;;;5030483;28;20052;-72
2021/01/21 03:13:01;;;;;;;0.43;0.43;;;11.10;77.50;;;;;;5029987;28;20486;-72
2021/01/21 03:15:27;;;;;;;0.50;0.50;;;11.20;77.20;;;;;;5030645;28;20447;-72
2021/01/21 03:17:56;;;;;;;0.50;0.50;;;11.20;77.00;;;;;;5030959;28;20368;-73
2021/01/21 03:20:21;;;;;;;1.30;0.60;;;11.30;77.00;;;;;;5030159;28;20372;-74
2021/01/21 03:22:47;;;;;;;0.88;0.50;;;11.30;77.20;;;;;;5029337;28;20022;-72
2021/01/21 03:25:13;;;;;;;3.05;0.70;;;11.30;77.30;;;;;;5031151;28;20029;-72
2021/01/21 03:27:40;;;;;;;1.27;0.50;;;11.30;77.20;;;;;;5028965;28;20549;-73
2021/01/21 03:30:07;;;;;;;0.40;0.40;;;11.30;77.30;;;;;;5031437;28;20499;-72
2021/01/21 03:32:33;;;;;;;0.60;0.60;;;11.30;77.40;;;;;;5028816;28;20021;-72
2021/01/21 03:34:59;;;;;;;1.65;0.50;;;11.30;77.50;;;;;;5030015;28;20026;-74
2021/01/21 03:37:24;;;;;;;0.95;0.63;;;11.40;77.60;;;;;;5029296;28;20124;-75
2021/01/21 03:39:50;;;;;;;0.35;0.35;;;11.30;77.60;;;;;;5029371;28;20034;-72
2021/01/21 03:42:16;;;;;;;0.57;0.57;;;11.40;77.90;;;;;;5029744;28;20033;-72
2021/01/21 03:44:42;;;;;;;0.90;0.70;;;11.30;78.30;;;;;;5029962;28;20037;-72
2021/01/21 03:47:07;;;;;;;0.57;0.45;;;11.30;78.70;;;;;;5029614;28;20048;-72
2021/01/21 03:49:33;;;;;;;1.17;0.63;;;11.20;79.00;;;;;;5029926;28;20021;-72
2021/01/21 03:52:00;;;;;;;0.90;0.60;;;11.20;79.00;;;;;;5029836;28;20036;-71
2021/01/21 03:54:26;;;;;;;1.90;0.60;;;11.20;78.80;;;;;;5030649;28;20104;-75
2021/01/21 03:56:51;;;;;;;0.40;0.40;;;11.20;78.20;;;;;;5029311;28;20528;-72
2021/01/21 03:59:17;;;;;;;0.30;0.30;;;11.30;78.10;;;;;;5029684;28;20022;-72
2021/01/21 04:01:42;;;;;;;4.10;0.75;;;11.40;77.90;;;;;;5029769;28;20026;-72
2021/01/21 04:04:08;;;;;;;0.43;0.43;;;11.50;77.90;;;;;;5030783;28;20032;-72
2021/01/21 04:06:34;;;;;;;0.63;0.50;;;11.50;77.70;;;;;;5029727;28;20033;-73
2021/01/21 04:08:59;;;;;;;0.50;0.50;;;11.60;77.80;;;;;;5030830;28;20095;-72
2021/01/21 04:11:25;;;;;;;0.77;0.40;;;11.70;77.80;;;;;;5029677;28;20030;-72
2021/01/21 04:13:51;;;;;;;0.40;0.40;;;11.70;77.90;;;;;;5033648;28;20025;-72
2021/01/21 04:16:16;;;;;;;0.73;0.50;;;11.60;78.30;;;;;;5034570;28;20022;-72
2021/01/21 04:18:42;;;;;;;0.93;0.50;;;11.60;79.10;;;;;;5030466;28;20463;-72
2021/01/21 04:21:08;;;;;;;1.25;0.60;;;11.50;79.70;;;;;;5034564;28;20071;-72
2021/01/21 04:23:35;;;;;;;1.30;0.60;;;11.50;80.40;;;;;;5032136;28;20017;-73
2021/01/21 04:26:02;;;;;;;0.63;0.50;;;11.40;80.80;;;;;;5032820;28;20029;-72
2021/01/21 04:28:27;;;;;;;1.92;1.08;;;11.40;81.20;;;;;;5033486;28;20498;-74
2021/01/21 04:30:53;;;;;;;1.17;0.45;;;11.30;86.40;;;;;;5033301;28;20021;-72
2021/01/21 04:33:19;;;;;;;0.68;0.50;;;10.80;88.80;;;;;;5032968;28;20344;-72
2021/01/21 04:35:44;;;;;;;0.45;0.45;;;10.10;90.40;;;;;;5033581;28;20104;-73
2021/01/21 04:38:10;;;;;;;0.68;0.40;;;9.70;91.30;;;;;;5034511;28;20117;-73
2021/01/21 04:40:36;;;;;;;0.90;0.50;;;9.20;92.10;;;;;;5032284;28;20113;-73
2021/01/21 04:43:02;;;;;;;0.85;0.40;;;8.80;92.70;;;;;;5034116;28;20025;-72
2021/01/21 04:45:28;;;;;;;0.35;0.35;;;8.50;93.30;;;;;;5033585;28;20029;-72
2021/01/21 04:47:54;;;;;;;0.73;0.50;;;8.30;93.80;;;;;;5031816;28;20044;-72
2021/01/21 04:50:20;;;;;;;0.50;0.50;;;8.10;94.00;;;;;;5034048;28;20026;-72
2021/01/21 04:52:50;;;;;;;1.08;0.50;;;8.00;94.30;;;;;;5032792;28;20026;-72
2021/01/21 04:55:19;;;;;;;0.52;0.47;;;8.00;94.50;;;;;;5033594;28;20411;-72
2021/01/21 04:57:54;;;;;;;0.52;0.40;;;7.80;94.60;;;;;;5032630;28;20101;-72
2021/01/21 05:00:20;;;;;;;1.42;0.60;;;7.70;94.70;;;;;;5032044;28;20108;-73
2021/01/21 05:02:48;;;;;;;0.93;0.50;;;7.60;94.90;;;;;;5033170;28;20487;-72
2021/01/21 05:05:14;;;;;;;0.82;0.40;;;7.60;94.90;;;;;;5033979;28;20029;-72
2021/01/21 05:07:40;;;;;;;2.42;0.60;;;7.50;94.90;;;;;;5031801;28;20367;-72
2021/01/21 05:10:07;;;;;;;0.75;0.50;;;7.60;95.10;;;;;;5033909;28;20458;-72
2021/01/21 05:12:33;;;;;;;2.10;0.68;;;7.50;95.20;;;;;;5031982;28;20033;-71
2021/01/21 05:14:59;;;;;;;0.63;0.57;;;7.50;95.20;;;;;;5032408;28;20375;-72
2021/01/21 05:17:25;;;;;;;0.68;0.47;;;7.40;95.20;;;;;;5034033;28;20108;-72
2021/01/21 05:19:54;;;;;;;1.90;0.60;;;7.30;95.40;;;;;;5033009;28;20343;-73
2021/01/21 05:22:21;;;;;;;0.40;0.40;;;7.30;95.40;;;;;;5021164;28;20054;-72
2021/01/21 05:24:47;;;;;;;0.52;0.50;;;7.30;95.40;;;;;;4990993;28;20030;-72
2021/01/21 05:27:17;;;;;;;2.17;0.45;;;7.20;95.40;;;;;;4994525;28;20019;-73
2021/01/21 05:29:45;;;;;;;0.50;0.50;;;7.30;95.50;;;;;;4992009;28;20377;-73
2021/01/21 05:32:19;;;;;;;0.50;0.50;;;7.20;95.50;;;;;;5016476;28;20116;-72
2021/01/21 05:34:46;;;;;;;0.85;0.50;;;7.20;95.50;;;;;;5016507;28;20076;-73
2021/01/21 05:37:13;;;;;;;5.97;0.90;;;7.20;95.60;;;;;;5031256;28;20053;-72
2021/01/21 05:39:41;;;;;;;0.73;0.50;;;7.10;95.70;;;;;;5031335;28;20029;-73
2021/01/21 05:42:07;;;;;;;0.80;0.60;;;7.10;95.70;;;;;;5033452;28;20474;-72
2021/01/21 05:44:33;;;;;;;1.90;0.73;;;7.10;95.70;;;;;;5031703;28;20022;-72
2021/01/21 05:47:03;;;;;;;0.30;0.30;;;7.20;95.70;;;;;;5032989;28;20025;-72
2021/01/21 05:49:29;;;;;;;1.67;0.88;;;7.20;95.50;;;;;;5032811;28;20029;-73
2021/01/21 05:51:56;;;;;;;0.40;0.38;;;7.30;95.60;;;;;;5032339;28;20025;-72
2021/01/21 05:54:29;;;;;;;0.75;0.70;;;7.30;95.40;;;;;;5031556;28;20049;-72
2021/01/21 05:56:56;;;;;;;1.60;0.63;;;7.30;95.30;;;;;;5032319;28;20087;-72
2021/01/21 05:59:24;;;;;;;0.50;0.40;;;7.40;95.20;;;;;;5032490;28;20025;-73
2021/01/21 06:01:51;;;;;;;1.17;0.50;;;7.40;95.20;;;;;;5032046;28;20052;-74
2021/01/21 06:04:18;;;;;;;0.40;0.40;;;7.50;95.10;;;;;;5030260;28;20041;-81
2021/01/21 06:06:44;;;;;;;8.07;1.23;;;7.40;95.10;;;;;;5030361;28;20057;-80
2021/01/21 06:09:15;;;;;;;2.22;0.95;;;7.50;95.10;;;;;;5032341;28;20025;-79
2021/01/21 06:11:42;;;;;;;6.28;1.65;;;7.50;95.00;;;;;;5031089;28;20021;-83
2021/01/21 06:14:09;;;;;;;1.23;0.82;;;7.50;95.00;;;;;;5032453;28;20510;-81
2021/01/21 06:16:35;;;;;;;1.52;0.60;;;7.50;95.00;;;;;;5028041;28;20025;-82
2021/01/21 06:19:01;;;;;;;0.60;0.50;;;7.50;95.00;;;;;;5028748;28;20029;-81
2021/01/21 06:21:31;;;;;;;1.20;0.52;;;7.50;95.00;;;;;;5030377;28;20047;-79
2021/01/21 06:24:05;;;;;;;1.10;0.70;;;7.60;95.00;;;;;;5029751;28;20071;-80
2021/01/21 06:26:38;;;;;;;0.75;0.50;;;7.60;95.00;;;;;;5029176;28;20462;-81
2021/01/21 06:29:05;;;;;;;4.05;1.63;;;7.60;94.90;;;;;;5029244;28;20349;-83
2021/01/21 06:31:35;;;;;;;2.58;1.00;;;7.60;94.80;;;;;;5038192;28;20032;-81
2021/01/21 06:34:03;;;;;;;4.27;0.83;;;7.60;94.60;;;;;;5041900;28;20081;-80
2021/01/21 06:36:31;;;;;;;3.95;0.93;;;7.60;94.60;;;;;;5039393;28;20462;-81
2021/01/21 06:39:00;;;;;;;0.75;0.50;;;7.60;94.60;;;;;;5031436;28;20202;-81
2021/01/21 06:41:29;;;;;;;1.83;0.60;;;7.60;94.60;;;;;;5047269;28;20033;-80
2021/01/21 06:43:55;;;;;;;0.40;0.40;;;7.60;94.60;;;;;;5047453;28;20072;-81
2021/01/21 06:46:21;;;;;;;0.50;0.50;;;7.60;94.50;;;;;;5034567;28;20040;-81
2021/01/21 06:48:48;;;;;;;5.13;0.80;;;7.50;94.50;;;;;;5031170;28;20101;-81
2021/01/21 06:51:16;;;;;;;0.93;0.63;;;7.50;94.50;;;;;;5032016;28;20021;-83
2021/01/21 06:53:48;;;;;;;0.73;0.50;;;7.50;94.40;;;;;;5031247;28;20021;-83
2021/01/21 06:56:14;;;;;;;1.05;0.70;;;7.60;94.40;;;;;;5032493;28;20212;-81
2021/01/21 06:58:50;;;;;;;1.48;0.73;;;7.50;94.30;;;;;;5030702;28;20112;-81
2021/01/21 07:01:31;;;;;;;0.60;0.60;;;7.50;94.10;;;;;;5031226;28;20021;-82
2021/01/21 07:04:03;;;;;;;0.82;0.60;;;7.50;94.10;;;;;;5030397;28;20064;-81
2021/01/21 07:07:12;;;;;;;2.08;0.90;;;7.50;94.20;;;;;;5031007;28;20391;-82
2021/01/21 07:09:40;;;;;;;1.88;1.00;;;7.50;94.00;;;;;;4936002;29;20035;-82
2021/01/21 07:12:13;;;;;;;2.65;0.93;;;7.50;94.00;;;;;;5020882;28;20501;-82
2021/01/21 07:14:40;;;;;;;1.52;0.88;;;7.50;93.80;;;;;;5030703;28;20029;-83
2021/01/21 07:17:06;;;;;;;1.40;0.82;;;7.40;93.80;;;;;;5032197;28;20105;-83
2021/01/21 07:19:40;;;;;;;2.28;0.90;;;7.40;93.60;;;;;;5031935;28;20072;-82
2021/01/21 07:22:12;;;;;;;1.55;1.05;;;7.40;93.40;;;;;;5032064;28;20021;-82
2021/01/21 07:25:01;;;;;;;0.88;0.85;;;7.50;93.20;;;;;;5030744;28;20029;-81
2021/01/21 07:27:29;;;;;;;0.75;0.75;;;7.40;93.10;;;;;;5030827;28;20029;-82
2021/01/21 07:30:25;;;;;;;0.65;0.65;;;7.40;93.20;;;;;;5031006;28;20111;-82
2021/01/21 07:33:23;;;;;;;0.80;0.50;;;7.40;92.70;;;;;;5029827;28;20395;-82
2021/01/21 07:35:50;;;;;;;1.38;0.75;;;7.30;92.90;;;;;;5021379;28;20438;-82
2021/01/21 07:38:41;;;;;;;3.05;1.08;;;7.30;92.90;;;;;;5031859;28;20025;-83
2021/01/21 07:41:06;;;;;;;2.27;1.17;;;7.20;91.90;;;;;;5030067;28;20482;-83
2021/01/21 07:43:57;;;;;;;2.25;0.90;;;7.20;92.00;;;;;;5031538;28;20117;-82
2021/01/21 07:46:26;;;;;;;0.95;0.70;;;7.20;91.80;;;;;;5031954;28;20029;-82
2021/01/21 07:49:27;;;;;;;1.27;0.80;;;7.10;91.90;;;;;;5034907;28;20017;-81
2021/01/21 07:51:59;;;;;;;1.00;0.90;;;7.20;92.10;;;;;;5034273;28;20064;-82
2021/01/21 07:54:26;;;;;;;0.50;0.50;;;7.20;92.00;;;;;;5036021;28;20206;-82
2021/01/21 07:56:52;;;;;;;0.55;0.55;;;7.20;92.10;;;;;;5033985;28;20021;-82
2021/01/21 07:59:17;;;;;;;2.47;0.73;;;7.20;92.10;;;;;;5035782;28;20023;-82
2021/01/21 08:01:59;;;;;;;3.17;1.20;;;7.20;91.60;;;;;;5036389;28;20085;-80
2021/01/21 08:04:25;;;;;;;1.58;0.70;;;7.30;91.40;;;;;;5036293;28;20159;-82
2021/01/21 08:06:57;;;;;;;3.28;0.63;;;7.20;91.30;;;;;;5034240;28;20121;-82
2021/01/21 08:09:24;;;;;;;1.20;0.60;;;7.30;91.20;;;;;;5034332;28;20095;-82
2021/01/21 08:11:50;;;;;;;2.17;1.10;;;7.30;91.20;;;;;;5033803;28;20464;-81
2021/01/21 08:14:17;;;;;;;1.30;1.20;;;7.30;91.20;;;;;;5034280;28;20018;-81
2021/01/21 08:16:44;;;;;;;1.40;0.95;;;7.20;91.10;;;;;;5034116;28;20371;-82
2021/01/21 08:19:10;;;;;;;1.30;0.60;;;7.30;91.10;;;;;;5034139;28;20053;-82
2021/01/21 08:21:36;;;;;;;2.88;0.73;;;7.30;90.50;;;;;;5033918;28;20115;-82
2021/01/21 08:24:06;;;;;;;1.10;0.63;;;7.30;90.50;;;;;;5033196;28;20031;-82
2021/01/21 08:26:33;;;;;;;1.65;0.70;;;7.30;90.30;;;;;;5035028;28;20037;-82
2021/01/21 08:28:59;;;;;;;0.75;0.60;;;7.30;90.30;;;;;;5034536;28;20045;-81
2021/01/21 08:31:33;;;;;;;0.60;0.60;;;7.40;90.30;;;;;;5034271;28;20364;-82
2021/01/21 08:34:01;;;;;;;0.75;0.65;;;7.40;90.10;;;;;;5034518;28;20021;-81
2021/01/21 08:36:27;;;;;;;1.52;0.88;;;7.40;89.90;;;;;;5033769;28;20057;-82
2021/01/21 08:38:54;;;;;;;0.85;0.65;;;7.30;88.50;;;;;;5033056;28;20056;-83
2021/01/21 08:41:21;;;;;;;2.33;0.80;;;7.30;89.10;;;;;;5033144;28;20104;-82
2021/01/21 08:43:47;;;;;;;0.70;0.70;;;7.30;88.60;;;;;;5034457;28;20356;-80
2021/01/21 08:46:15;;;;;;;4.38;0.90;;;7.40;88.80;;;;;;5033741;28;20033;-82
2021/01/21 08:48:41;;;;;;;0.90;0.57;;;7.40;88.60;;;;;;5033454;28;20029;-82
2021/01/21 08:51:35;;;;;;;2.67;0.90;;;7.40;88.50;;;;;;5034414;28;20284;-83
2021/01/21 08:54:18;;;;;;;0.80;0.80;;;7.40;88.20;;;;;;5034237;28;20025;-82
2021/01/21 08:56:44;;;;;;;0.98;0.98;;;7.50;88.30;;;;;;5033002;28;20053;-82
2021/01/21 08:59:27;;;;;;;2.55;0.77;;;7.40;88.20;;;;;;5034008;28;20022;-83
2021/01/21 09:01:53;;;;;;;2.58;0.43;;;7.50;88.10;;;;;;5032477;28;20068;-82
2021/01/21 09:04:23;;;;;;;1.17;0.82;;;7.40;87.80;;;;;;5034142;28;20026;-83
2021/01/21 09:06:51;;;;;;;0.55;0.50;;;7.50;87.70;;;;;;5032192;28;20083;-82
2021/01/21 09:09:28;;;;;;;0.70;0.70;;;7.50;87.60;;;;;;5032521;28;20120;-83
2021/01/21 09:11:54;;;;;;;1.55;0.82;;;7.60;87.50;;;;;;5032452;28;20076;-81
2021/01/21 09:14:20;;;;;;;0.80;0.60;;;7.50;87.40;;;;;;5032821;28;20087;-82
2021/01/21 09:16:47;;;;;;;1.50;1.08;;;7.60;87.30;;;;;;5032774;28;20033;-83
2021/01/21 09:19:27;;;;;;;1.85;0.70;;;7.60;87.40;;;;;;5031742;28;20021;-82
2021/01/21 09:22:04;;;;;;;1.50;0.80;;;7.70;87.20;;;;;;5033411;28;20097;-82
2021/01/21 09:24:31;;;;;;;0.90;0.60;;;7.60;87.00;;;;;;5034073;28;20018;-83
2021/01/21 09:27:14;;;;;;;0.40;0.40;;;7.70;87.00;;;;;;5032678;28;20459;-82
2021/01/21 09:30:13;;;;;;;4.70;0.60;;;7.70;87.20;;;;;;5033697;28;20051;-82
2021/01/21 09:32:41;;;;;;;0.90;0.60;;;7.80;87.10;;;;;;5019010;28;20041;-83
2021/01/21 09:35:19;;;;;;;1.77;0.73;;;7.80;87.10;;;;;;5032469;28;20029;-83
2021/01/21 09:37:53;;;;;;;0.75;0.65;;;7.80;87.10;;;;;;5034950;28;20497;-83
2021/01/21 09:40:24;;;;;;;1.20;0.93;;;7.80;86.90;;;;;;5034654;28;20022;-84
2021/01/21 09:42:54;;;;;;;1.35;1.15;;;7.80;85.80;;;;;;5032550;28;20023;-83
2021/01/21 09:45:20;;;;;;;1.33;0.80;;;7.90;86.20;;;;;;5032728;28;20025;-83
2021/01/21 09:47:47;;;;;;;0.75;0.50;;;7.80;86.20;;;;;;5032076;28;20033;-83
2021/01/21 09:50:13;;;;;;;1.30;0.82;;;7.90;86.30;;;;;;5033014;28;20104;-82
2021/01/21 09:52:39;;;;;;;0.40;0.40;;;7.90;86.20;;;;;;5032473;28;20021;-82
2021/01/21 09:55:05;;;;;;;1.38;0.77;;;7.90;86.20;;;;;;5035171;28;20524;-83
2021/01/21 09:57:31;;;;;;;2.35;0.80;;;7.90;86.10;;;;;;5035015;28;20075;-83
2021/01/21 09:59:57;;;;;;;3.65;1.15;;;8.00;85.70;;;;;;5039617;28;20021;-83
2021/01/21 10:02:23;;;;;;;2.00;0.70;;;8.00;85.60;;;;;;5032332;28;20033;-83
2021/01/21 10:04:49;;;;;;;2.05;0.55;;;8.10;85.80;;;;;;5032426;28;20029;-83
2021/01/21 10:07:15;;;;;;;0.90;0.63;;;8.30;85.50;;;;;;5032579;28;20436;-84
2021/01/21 10:09:40;;;;;;;2.55;0.57;;;8.30;84.70;;;;;;5031414;28;20057;-83
2021/01/21 10:12:07;;;;;;;4.45;1.20;;;8.40;84.20;;;;;;5033105;28;20456;-83
2021/01/21 10:14:33;;;;;;;4.57;1.00;;;8.50;83.50;;;;;;5032125;28;20017;-83
2021/01/21 10:16:59;;;;;;;1.42;1.00;;;8.50;83.30;;;;;;5031351;28;20022;-83
2021/01/21 10:19:26;;;;;;;1.95;1.52;;;8.50;83.60;;;;;;5032008;28;20053;-83
2021/01/21 10:21:52;;;;;;;0.60;0.50;;;8.60;83.30;;;;;;5033491;28;20098;-83
2021/01/21 10:24:17;;;;;;;2.95;0.70;;;8.70;83.20;;;;;;5041922;28;20073;-83
2021/01/21 10:26:43;;;;;;;0.55;0.40;;;8.70;83.10;;;;;;5050079;28;20030;-83
2021/01/21 10:29:09;;;;;;;2.55;0.95;;;8.80;82.50;;;;;;5035820;28;20048;-83
2021/01/21 10:31:35;;;;;;;0.55;0.55;;;8.80;82.00;;;;;;5036480;28;20468;-83
2021/01/21 10:34:02;;;;;;;1.67;0.82;;;8.80;82.30;;;;;;5050828;28;20028;-83
2021/01/21 10:36:28;;;;;;;1.55;0.90;;;8.90;81.40;;;;;;5048882;28;20037;-82
2021/01/21 10:38:54;;;;;;;0.82;0.70;;;8.80;81.30;;;;;;5035339;28;20013;-84
2021/01/21 10:41:19;;;;;;;1.50;0.70;;;8.90;81.70;;;;;;5031318;28;20026;-83
2021/01/21 10:43:45;;;;;;;0.60;0.60;;;9.00;81.60;;;;;;5033120;28;20390;-84
2021/01/21 10:46:11;;;;;;;1.63;1.20;;;9.00;81.90;;;;;;5031977;28;20379;-83
2021/01/21 10:48:37;;;;;;;1.50;0.77;;;9.00;82.10;;;;;;5031560;28;20057;-83
2021/01/21 10:51:02;;;;;;;2.88;0.85;;;9.00;82.10;;;;;;5030469;28;20044;-82
2021/01/21 10:53:28;;;;;;;1.45;0.77;;;9.00;81.80;;;;;;5031215;28;20021;-83
2021/01/21 10:55:54;;;;;;;0.75;0.60;;;9.00;81.90;;;;;;5031741;28;20418;-82
2021/01/21 10:58:19;;;;;;;5.75;1.27;;;9.00;82.10;;;;;;5032201;28;20049;-82
2021/01/21 11:00:45;;;;;;;5.35;0.93;;;9.00;82.00;;;;;;5031149;28;20068;-83
2021/01/21 11:03:12;;;;;;;1.40;0.63;;;9.00;82.20;;;;;;5030464;28;20028;-83
2021/01/21 11:05:39;;;;;;;1.95;0.88;;;9.00;82.00;;;;;;5030842;28;20037;-83
2021/01/21 11:08:05;;;;;;;2.22;0.82;;;9.10;81.40;;;;;;5031650;28;20611;-83
2021/01/21 11:10:31;;;;;;;1.08;0.60;;;9.10;82.10;;;;;;5031511;28;20025;-81
2021/01/21 11:12:56;;;;;;;6.18;1.20;;;9.10;82.40;;;;;;5030350;28;20063;-83
2021/01/21 11:15:23;;;;;;;0.93;0.47;;;9.10;82.00;;;;;;5030100;28;20044;-84
2021/01/21 11:17:49;;;;;;;0.70;0.60;;;9.10;81.70;;;;;;5030632;28;20459;-82
2021/01/21 11:20:15;;;;;;;2.25;0.70;;;9.10;81.50;;;;;;5031485;28;20116;-83
2021/01/21 11:22:41;;;;;;;1.77;0.88;;;9.10;81.00;;;;;;5032986;28;20108;-82
2021/01/21 11:25:09;;;;;;;1.15;0.80;;;9.20;81.40;;;;;;5034116;28;20057;-83
2021/01/21 11:27:38;;;;;;;7.72;1.80;;;9.10;80.80;;;;;;5034932;28;20021;-83
2021/01/21 11:30:06;;;;;;;1.13;0.98;;;9.10;80.90;;;;;;5034897;28;20466;-82
2021/01/21 11:32:31;;;;;;;0.57;0.52;;;9.10;80.40;;;;;;5035815;28;20057;-82
2021/01/21 11:34:57;;;;;;;1.00;0.77;;;9.10;81.10;;;;;;5035777;28;20029;-84
2021/01/21 11:37:23;;;;;;;1.42;0.85;;;9.10;80.70;;;;;;5035365;28;20101;-83
2021/01/21 11:39:49;;;;;;;3.60;0.63;;;9.10;80.90;;;;;;5034763;28;20044;-82
2021/01/21 11:42:15;;;;;;;1.67;0.80;;;9.10;80.30;;;;;;5035231;28;20096;-82
2021/01/21 11:44:40;;;;;;;1.38;0.70;;;9.10;79.80;;;;;;5034555;28;20041;-83
2021/01/21 11:47:06;;;;;;;2.42;1.00;;;9.20;79.80;;;;;;5036672;28;20017;-82
2021/01/21 11:49:32;;;;;;;1.55;0.95;;;9.20;79.60;;;;;;5035481;28;20377;-82
2021/01/21 11:51:58;;;;;;;1.25;0.60;;;9.30;79.70;;;;;;5036090;28;20501;-82
2021/01/21 11:54:24;;;;;;;3.60;1.88;;;9.30;79.70;;;;;;5035302;28;20562;-82
2021/01/21 11:56:50;;;;;;;1.02;0.70;;;9.30;79.00;;;;;;5035537;28;20017;-82
2021/01/21 11:59:16;;;;;;;2.30;0.95;;;9.30;79.10;;;;;;5035040;28;20025;-82
2021/01/21 12:01:42;;;;;;;2.33;0.85;;;9.30;78.40;;;;;;5035601;28;20394;-82
2021/01/21 12:04:08;;;;;;;1.52;1.05;;;9.30;78.20;;;;;;5032864;28;20124;-83
2021/01/21 12:06:35;;;;;;;1.15;0.80;;;9.30;77.90;;;;;;5034015;28;20453;-82
2021/01/21 12:09:04;;;;;;;0.80;0.75;;;9.30;78.10;;;;;;5034240;28;20033;-82
2021/01/21 12:11:31;;;;;;;1.27;0.50;;;9.30;78.30;;;;;;5033946;28;20045;-83
2021/01/21 12:13:57;;;;;;;5.15;1.05;;;9.40;78.70;;;;;;5033769;28;20354;-82
2021/01/21 12:16:22;;;;;;;0.80;0.80;;;9.40;78.70;;;;;;5033469;28;20025;-82
2021/01/21 12:18:49;;;;;;;2.25;0.88;;;9.40;78.30;;;;;;5033800;28;20171;-83
2021/01/21 12:21:15;;;;;;;1.08;0.70;;;9.50;78.40;;;;;;5034452;28;20029;-82
2021/01/21 12:23:41;;;;;;;1.73;0.80;;;9.60;78.90;;;;;;5035540;28;20018;-83
2021/01/21 12:26:06;;;;;;;1.65;0.98;;;9.60;78.50;;;;;;5033280;28;20109;-83
2021/01/21 12:28:35;;;;;;;1.15;0.70;;;9.60;78.50;;;;;;5034934;28;20025;-82
2021/01/21 12:31:05;;;;;;;1.52;0.90;;;9.60;78.10;;;;;;5034966;28;20076;-81
2021/01/21 12:33:31;;;;;;;2.67;0.73;;;9.60;78.20;;;;;;5033150;28;20479;-82
2021/01/21 12:35:59;;;;;;;1.48;0.73;;;9.60;78.30;;;;;;5035004;28;20148;-81
2021/01/21 12:38:24;;;;;;;2.88;0.80;;;9.60;78.50;;;;;;5034569;28;20022;-82
2021/01/21 12:40:52;;;;;;;2.22;1.45;;;9.60;78.00;;;;;;5033094;28;20371;-83
2021/01/21 12:43:19;;;;;;;2.92;1.10;;;9.60;77.50;;;;;;5032837;28;20026;-81
2021/01/21 12:45:45;;;;;;;1.85;0.90;;;9.60;77.10;;;;;;5034136;28;20176;-80
2021/01/21 12:48:12;;;;;;;1.77;1.02;;;9.60;77.90;;;;;;5032798;28;20105;-81
2021/01/21 12:50:38;;;;;;;1.00;0.60;;;9.50;77.10;;;;;;5033359;28;20026;-82
2021/01/21 12:53:04;;;;;;;1.02;0.88;;;9.50;77.30;;;;;;5034758;28;20071;-81
2021/01/21 12:55:31;;;;;;;3.80;0.98;;;9.50;77.20;;;;;;5033232;28;20116;-82
2021/01/21 12:57:57;;;;;;;1.63;0.88;;;9.50;77.10;;;;;;5033019;28;20509;-82
2021/01/21 13:00:23;;;;;;;1.98;0.70;;;9.40;77.60;;;;;;5033975;28;20129;-81